KBQK/BQK METAR and TAF weather

Enter ICAO airport designator
Station Type Date Time Source
KBQK METAR 2018/04/27 00:55 UTC NOAA

KBQK 270055Z AUTO 17007KT 10SM CLR 21/16 A2984 RMK AO2


Station Type Date Time Source
KBQK Decoded METAR 2018/04/27 00:55 UTC NOAA

Brunswick / Glynco, GA, United States (KBQK) 31-15N 081-28W
Apr 26, 2018 - 08:55 PM EDT / 2018.04.27 0055 UTC
Wind: from the S (170 degrees) at 8 MPH (7 KT):0
Visibility: 10 mile(s):0
Sky conditions: clear
Temperature: 69 F (21 C)
Dew Point: 60 F (16 C)
Relative Humidity: 73%
Pressure (altimeter): 29.84 in. Hg (1010 hPa)
ob: KBQK 270055Z AUTO 17007KT 10SM CLR 21/16 A2984 RMK AO2
cycle: 1

Station Type Date Time Source
KBQK TAF UTC NOAA

Error!


Example: see airport list